Time;durP1;ratioP1;P1;durP2;ratioP2;P2;SDS_P1;SDS_P2;PMS_P1;PMS_P2;Temp;Humidity;BMP_temperature;BMP_pressure;BME280_temperature;BME280_humidity;BME280_pressure;Samples;Min_cycle;Max_cycle;Signal;HPM_P1;HPM_P2
2024/01/25 00:00:09;;;;;;;14.52;2.55;;;;;;;6.57;nan;96961.56;2066378;28;20042;-58
2024/01/25 00:01:10;;;;;;;8.77;1.98;;;;;;;6.55;nan;96958.19;2057519;28;20050;-67
2024/01/25 00:02:11;;;;;;;10.55;2.22;;;;;;;6.54;nan;96946.13;2057630;28;20057;-69
2024/01/25 00:03:12;;;;;;;11.90;1.73;;;;;;;6.59;nan;96949.50;2066539;28;20050;-60
2024/01/25 00:04:13;;;;;;;9.77;2.38;;;;;;;6.61;nan;96952.91;2066592;28;20054;-57
2024/01/25 00:05:14;;;;;;;8.48;1.85;;;;;;;6.59;nan;96945.19;2067873;28;20061;-56
2024/01/25 00:06:16;;;;;;;11.90;2.17;;;;;;;6.59;nan;96945.19;2059053;28;20518;-66
2024/01/25 00:07:17;;;;;;;14.02;2.40;;;;;;;6.56;nan;96942.66;2059464;28;20058;-66
2024/01/25 00:08:18;;;;;;;13.38;2.28;;;;;;;6.56;nan;96950.38;2068596;28;20406;-60
2024/01/25 00:09:19;;;;;;;9.73;1.65;;;;;;;6.56;nan;96950.38;2068313;28;20058;-59
2024/01/25 00:10:21;;;;;;;7.82;2.22;;;;;;;6.53;nan;96941.84;2068279;28;20038;-55
2024/01/25 00:11:22;;;;;;;11.50;1.95;;;;;;;6.57;nan;96948.66;2067937;28;20041;-59
2024/01/25 00:12:23;;;;;;;13.73;2.58;;;;;;;6.60;nan;96951.19;2068269;28;20054;-55
2024/01/25 00:13:24;;;;;;;12.55;2.85;;;;;;;6.63;nan;96951.16;2067107;28;20042;-61
2024/01/25 00:14:26;;;;;;;7.43;1.70;;;;;;;6.64;nan;96945.09;2067253;28;20461;-61
2024/01/25 00:15:27;;;;;;;11.90;1.90;;;;;;;6.62;nan;96952.03;2067575;28;20054;-66
2024/01/25 00:16:28;;;;;;;8.93;2.03;;;;;;;6.59;nan;96952.91;2067889;28;20030;-59
2024/01/25 00:17:29;;;;;;;11.25;2.47;;;;;;;6.59;nan;96946.91;2067662;28;20053;-56
2024/01/25 00:18:31;;;;;;;10.00;1.90;;;;;;;6.58;nan;96950.38;2067847;28;20053;-56
2024/01/25 00:19:33;;;;;;;8.52;2.50;;;;;;;6.61;nan;96950.31;2067720;28;20484;-59
2024/01/25 00:20:35;;;;;;;12.73;1.95;;;;;;;6.62;nan;96941.69;2068027;28;20046;-62
2024/01/25 00:21:41;;;;;;;11.63;2.55;;;;;;;6.62;nan;96946.84;2067728;28;20049;-72
2024/01/25 00:22:42;;;;;;;8.85;1.80;;;;;;;6.60;nan;96951.19;2067786;28;20046;-57
2024/01/25 00:23:43;;;;;;;11.73;2.03;;;;;;;6.60;nan;96956.34;2066756;28;20054;-55
2024/01/25 00:24:45;;;;;;;9.48;1.88;;;;;;;6.61;nan;96953.75;2066826;28;20506;-56
2024/01/25 00:25:46;;;;;;;11.15;1.92;;;;;;;6.64;nan;96955.44;2066102;28;20438;-55
2024/01/25 00:26:47;;;;;;;10.15;2.25;;;;;;;6.65;nan;96957.13;2066482;28;20053;-56
2024/01/25 00:27:48;;;;;;;16.48;2.20;;;;;;;6.63;nan;96954.59;2065765;28;20050;-55
2024/01/25 00:28:49;;;;;;;6.40;1.40;;;;;;;6.64;nan;96955.44;2065707;28;20407;-56
2024/01/25 00:29:50;;;;;;;6.05;1.60;;;;;;;6.67;nan;96947.63;2066540;28;20057;-55
2024/01/25 00:30:51;;;;;;;13.15;2.75;;;;;;;6.67;nan;96942.47;2066481;28;20051;-56
2024/01/25 00:31:53;;;;;;;12.52;2.33;;;;;;;6.66;nan;96945.94;2066239;28;20058;-55
2024/01/25 00:32:54;;;;;;;9.50;1.65;;;;;;;6.69;nan;96947.63;2066390;28;20046;-56
2024/01/25 00:33:56;;;;;;;12.80;2.30;;;;;;;6.67;nan;96939.91;2066538;28;20042;-55
2024/01/25 00:34:58;;;;;;;10.57;2.13;;;;;;;6.67;nan;96944.22;2066813;28;20053;-55
2024/01/25 00:35:59;;;;;;;12.95;2.10;;;;;;;6.70;nan;96944.16;2064873;28;20058;-55
2024/01/25 00:37:00;;;;;;;4.22;1.17;;;;;;;6.70;nan;96944.16;2065764;28;20057;-55
2024/01/25 00:38:02;;;;;;;12.93;2.42;;;;;;;6.66;nan;96933.03;2066740;28;20038;-55
2024/01/25 00:39:04;;;;;;;11.98;1.98;;;;;;;6.70;nan;96939.00;2066806;28;20489;-56
2024/01/25 00:40:05;;;;;;;6.70;1.58;;;;;;;6.71;nan;96945.84;2066673;28;20052;-57
2024/01/25 00:41:06;;;;;;;12.23;2.40;;;;;;;6.68;nan;96940.72;2066629;28;20061;-56
2024/01/25 00:42:08;;;;;;;9.75;1.90;;;;;;;6.69;nan;96939.88;2049989;29;20054;-55
2024/01/25 00:43:09;;;;;;;9.75;1.98;;;;;;;6.69;nan;96942.47;2050012;29;20059;-56
2024/01/25 00:44:10;;;;;;;11.68;2.33;;;;;;;6.69;nan;96938.16;2058369;28;20054;-67
2024/01/25 00:45:12;;;;;;;10.30;1.50;;;;;;;6.70;nan;96933.81;2067819;28;20042;-69
2024/01/25 00:46:14;;;;;;;14.60;2.78;;;;;;;6.69;nan;96943.31;2067460;28;20046;-62
2024/01/25 00:47:15;;;;;;;9.52;2.38;;;;;;;6.69;nan;96942.47;2067760;28;20038;-58
2024/01/25 00:48:16;;;;;;;7.95;1.50;;;;;;;6.68;nan;96933.00;2066887;28;20054;-55
2024/01/25 00:49:17;;;;;;;10.30;1.45;;;;;;;6.68;nan;96926.09;2066875;28;20049;-56
2024/01/25 00:50:20;;;;;;;9.75;1.60;;;;;;;6.67;nan;96926.97;2067329;28;20079;-55
2024/01/25 00:51:23;;;;;;;10.10;1.88;;;;;;;6.69;nan;96917.50;2067420;28;20034;-63
2024/01/25 00:52:24;;;;;;;12.98;2.03;;;;;;;6.72;nan;96924.34;2057858;28;20383;-55
2024/01/25 00:53:25;;;;;;;9.02;1.42;;;;;;;6.67;nan;96926.97;2058048;28;20039;-55
2024/01/25 00:54:27;;;;;;;7.13;2.20;;;;;;;6.72;nan;96932.06;2065826;28;20057;-56
2024/01/25 00:55:28;;;;;;;12.68;2.17;;;;;;;6.72;nan;96929.50;2065679;28;20046;-56
2024/01/25 00:56:30;;;;;;;14.55;2.13;;;;;;;6.70;nan;96929.50;2066403;28;20497;-61
2024/01/25 00:57:31;;;;;;;12.90;2.92;;;;;;;6.71;nan;96936.41;2066709;28;20114;-55
2024/01/25 00:58:32;;;;;;;11.70;2.65;;;;;;;6.69;nan;96920.06;2065639;28;20394;-56
2024/01/25 00:59:33;;;;;;;12.90;1.58;;;;;;;6.72;nan;96926.91;2057935;28;20050;-55
2024/01/25 01:00:35;;;;;;;15.00;3.05;;;;;;;6.68;nan;96918.34;2057365;28;20483;-55
2024/01/25 01:01:36;;;;;;;12.48;2.35;;;;;;;6.70;nan;96910.59;2066577;28;20038;-56
2024/01/25 01:02:42;;;;;;;10.63;1.77;;;;;;;6.71;nan;96907.13;2066593;28;20049;-55
2024/01/25 01:03:44;;;;;;;15.38;2.60;;;;;;;6.74;nan;96900.19;2066301;28;20394;-55
2024/01/25 01:04:45;;;;;;;9.60;1.95;;;;;;;6.76;nan;96919.09;2066764;28;20046;-55
2024/01/25 01:05:46;;;;;;;9.20;2.25;;;;;;;6.77;nan;96917.38;2066490;28;20486;-55
2024/01/25 01:06:47;;;;;;;10.55;1.42;;;;;;;6.75;nan;96922.53;2066546;28;20038;-56
2024/01/25 01:07:49;;;;;;;20.05;2.65;;;;;;;6.74;nan;96914.84;2066371;28;20046;-55
2024/01/25 01:08:50;;;;;;;12.52;3.30;;;;;;;6.73;nan;96923.44;2066620;28;20049;-55
2024/01/25 01:09:51;;;;;;;10.80;2.47;;;;;;;6.73;nan;96915.69;2066495;28;20038;-57
2024/01/25 01:10:52;;;;;;;13.57;3.10;;;;;;;6.79;nan;96924.22;2066237;28;20051;-55
2024/01/25 01:11:53;;;;;;;10.00;1.52;;;;;;;6.78;nan;96930.22;2066608;28;20055;-55
2024/01/25 01:12:54;;;;;;;14.73;2.60;;;;;;;6.77;nan;96928.53;2066029;28;20053;-55
2024/01/25 01:13:56;;;;;;;10.95;2.28;;;;;;;6.78;nan;96926.81;2066082;28;20054;-55
2024/01/25 01:14:57;;;;;;;15.43;2.38;;;;;;;6.75;nan;96921.69;2057970;28;20039;-55
2024/01/25 01:15:58;;;;;;;11.90;2.30;;;;;;;6.73;nan;96923.44;2057619;28;20057;-56
2024/01/25 01:16:59;;;;;;;14.00;1.92;;;;;;;6.74;nan;96920.84;2066465;28;20482;-56
2024/01/25 01:18:00;;;;;;;14.65;2.17;;;;;;;6.74;nan;96920.00;2066743;28;20038;-55
2024/01/25 01:19:05;;;;;;;12.10;2.13;;;;;;;6.73;nan;96920.88;2066604;28;20108;-55
2024/01/25 01:20:07;;;;;;;12.00;2.53;;;;;;;6.76;nan;96919.09;2066423;28;20061;-55
2024/01/25 01:21:08;;;;;;;10.70;2.03;;;;;;;6.79;nan;96918.16;2066333;28;20046;-56
2024/01/25 01:22:09;;;;;;;13.95;2.20;;;;;;;6.80;nan;96917.31;2066617;28;20050;-55
2024/01/25 01:23:10;;;;;;;13.63;2.67;;;;;;;6.78;nan;96917.31;2065845;28;20057;-56
2024/01/25 01:24:11;;;;;;;11.30;1.83;;;;;;;6.78;nan;96916.47;2066691;28;20470;-55
2024/01/25 01:25:12;;;;;;;13.80;2.50;;;;;;;6.77;nan;96928.53;2066435;28;20053;-55
2024/01/25 01:26:13;;;;;;;20.33;2.55;;;;;;;6.76;nan;96925.97;2065751;28;20062;-57
2024/01/25 01:27:14;;;;;;;14.02;2.20;;;;;;;6.75;nan;96926.84;2066569;28;20038;-55
2024/01/25 01:28:16;;;;;;;18.10;2.95;;;;;;;6.75;nan;96934.59;2066710;28;20660;-55
2024/01/25 01:29:17;;;;;;;10.88;2.22;;;;;;;6.76;nan;96931.13;2066529;28;20047;-57
2024/01/25 01:30:18;;;;;;;9.60;2.05;;;;;;;6.77;nan;96938.03;2066706;28;20035;-61
2024/01/25 01:31:19;;;;;;;15.32;3.10;;;;;;;6.75;nan;96919.97;2065855;28;20398;-55
2024/01/25 01:32:20;;;;;;;12.55;2.30;;;;;;;6.75;nan;96919.97;2066132;28;20050;-56
2024/01/25 01:33:21;;;;;;;16.65;2.17;;;;;;;6.74;nan;96915.69;2065716;28;20050;-55
2024/01/25 01:34:23;;;;;;;12.38;2.42;;;;;;;6.74;nan;96920.84;2065899;28;20051;-55
2024/01/25 01:35:24;;;;;;;11.57;2.67;;;;;;;6.73;nan;96924.28;2066113;28;20061;-55
2024/01/25 01:36:25;;;;;;;15.75;2.42;;;;;;;6.74;nan;96920.00;2065955;28;20402;-55
2024/01/25 01:37:26;;;;;;;11.48;2.53;;;;;;;6.75;nan;96916.53;2065880;28;20058;-55
2024/01/25 01:38:27;;;;;;;17.33;2.88;;;;;;;6.73;nan;96908.81;2066368;28;20094;-55
2024/01/25 01:39:28;;;;;;;11.10;1.95;;;;;;;6.74;nan;96912.25;2066014;28;20055;-56
2024/01/25 01:40:29;;;;;;;16.48;2.47;;;;;;;6.73;nan;96913.97;2066289;28;20042;-55
2024/01/25 01:41:30;;;;;;;14.02;2.47;;;;;;;6.74;nan;96910.53;2065092;28;20402;-55
2024/01/25 01:42:33;;;;;;;13.05;2.30;;;;;;;6.77;nan;96915.63;2066479;28;20050;-55
2024/01/25 01:43:34;;;;;;;13.00;2.17;;;;;;;6.76;nan;96903.63;2065744;28;20407;-55
2024/01/25 01:44:35;;;;;;;22.42;2.33;;;;;;;6.77;nan;96910.47;2066416;28;20045;-55
2024/01/25 01:45:36;;;;;;;11.73;3.15;;;;;;;6.78;nan;96912.16;2066381;28;20046;-56
2024/01/25 01:46:39;;;;;;;12.27;2.20;;;;;;;6.78;nan;96903.56;2066119;28;20049;-55
2024/01/25 01:47:40;;;;;;;13.05;1.95;;;;;;;6.80;nan;96909.56;2065610;28;20054;-57
2024/01/25 01:48:41;;;;;;;15.65;2.60;;;;;;;6.79;nan;96900.97;2065583;28;20403;-55
2024/01/25 01:49:43;;;;;;;11.05;2.05;;;;;;;6.80;nan;96914.72;2065086;28;20054;-55
2024/01/25 01:50:44;;;;;;;12.93;2.58;;;;;;;6.77;nan;96905.31;2057629;28;20070;-56
2024/01/25 01:51:45;;;;;;;10.07;1.60;;;;;;;6.76;nan;96906.19;2057819;28;20506;-55
2024/01/25 01:52:46;;;;;;;13.68;1.77;;;;;;;6.73;nan;96905.38;2049838;28;20062;-55
2024/01/25 01:53:47;;;;;;;8.57;2.03;;;;;;;6.72;nan;96921.75;2041904;28;20504;-55
2024/01/25 01:54:48;;;;;;;14.60;2.67;;;;;;;6.70;nan;96914.03;2057051;28;20106;-56
2024/01/25 01:55:50;;;;;;;16.35;2.47;;;;;;;6.72;nan;96896.78;2057509;28;20418;-56
2024/01/25 01:56:51;;;;;;;13.48;2.70;;;;;;;6.72;nan;96898.53;2057429;28;20051;-55
2024/01/25 01:57:52;;;;;;;15.00;2.85;;;;;;;6.68;nan;96902.88;2057081;28;20050;-55
2024/01/25 01:58:53;;;;;;;8.98;1.85;;;;;;;6.72;nan;96895.94;2049618;28;20484;-55
2024/01/25 01:59:54;;;;;;;13.70;2.17;;;;;;;6.74;nan;96904.50;2056828;28;20431;-55
2024/01/25 02:00:56;;;;;;;17.20;3.47;;;;;;;6.75;nan;96904.47;2056941;28;20055;-55
2024/01/25 02:01:57;;;;;;;9.45;1.83;;;;;;;6.74;nan;96895.03;2057572;28;20058;-56
2024/01/25 02:02:59;;;;;;;11.95;2.30;;;;;;;6.76;nan;96895.00;2065298;28;20053;-56
2024/01/25 02:04:00;;;;;;;11.20;3.10;;;;;;;6.75;nan;96894.16;2065430;28;20483;-55
2024/01/25 02:05:01;;;;;;;12.13;2.60;;;;;;;6.76;nan;96895.88;2065902;28;20066;-59
2024/01/25 02:06:02;;;;;;;10.70;1.45;;;;;;;6.78;nan;96903.56;2066216;28;20054;-55
2024/01/25 02:07:03;;;;;;;17.40;2.40;;;;;;;6.75;nan;96901.88;2066111;28;20050;-55
2024/01/25 02:08:05;;;;;;;11.82;2.28;;;;;;;6.75;nan;96894.16;2065468;28;20050;-56
2024/01/25 02:09:06;;;;;;;16.25;3.17;;;;;;;6.75;nan;96891.56;2057154;28;20403;-55
2024/01/25 02:10:08;;;;;;;15.20;2.85;;;;;;;6.76;nan;96903.63;2057532;28;20054;-56
2024/01/25 02:11:12;;;;;;;9.65;1.88;;;;;;;6.77;nan;96905.31;2066046;28;20042;-55
2024/01/25 02:12:16;;;;;;;17.45;2.85;;;;;;;6.78;nan;96899.25;2065565;28;20046;-55
2024/01/25 02:13:17;;;;;;;16.83;3.50;;;;;;;6.79;nan;96906.13;2065538;28;20054;-59
2024/01/25 02:14:18;;;;;;;14.13;2.83;;;;;;;6.78;nan;96906.16;2066102;28;20049;-55
2024/01/25 02:15:19;;;;;;;17.33;2.28;;;;;;;6.79;nan;96902.69;2066105;28;20415;-56
2024/01/25 02:16:20;;;;;;;14.05;2.38;;;;;;;6.81;nan;96895.75;2065946;28;20057;-55
2024/01/25 02:17:22;;;;;;;11.15;2.13;;;;;;;6.79;nan;96895.81;2065881;28;20053;-56
2024/01/25 02:18:23;;;;;;;10.05;2.42;;;;;;;6.79;nan;96884.59;2066094;28;20050;-56
2024/01/25 02:19:24;;;;;;;13.95;2.03;;;;;;;6.80;nan;96892.34;2057338;28;20042;-54
2024/01/25 02:20:25;;;;;;;15.20;2.85;;;;;;;6.76;nan;96893.28;2057447;28;20427;-55
2024/01/25 02:21:26;;;;;;;13.68;2.20;;;;;;;6.81;nan;96890.59;2065880;28;20475;-55
2024/01/25 02:22:27;;;;;;;13.43;2.53;;;;;;;6.83;nan;96887.09;2065393;28;20046;-55
2024/01/25 02:23:28;;;;;;;9.55;1.90;;;;;;;6.80;nan;96897.50;2066226;28;20034;-55
2024/01/25 02:24:29;;;;;;;20.45;2.95;;;;;;;6.80;nan;96891.50;2065461;28;20054;-55
2024/01/25 02:25:30;;;;;;;14.70;2.80;;;;;;;6.78;nan;96888.06;2066032;28;20054;-55
2024/01/25 02:26:31;;;;;;;13.00;2.53;;;;;;;6.78;nan;96886.34;2065208;28;20402;-54
2024/01/25 02:27:38;;;;;;;15.65;2.72;;;;;;;6.78;nan;96893.25;2064958;28;20046;-56
2024/01/25 02:28:39;;;;;;;8.98;2.60;;;;;;;6.78;nan;96886.34;2066155;28;20057;-55
2024/01/25 02:29:40;;;;;;;14.55;3.20;;;;;;;6.79;nan;96884.59;2057424;28;20042;-56
2024/01/25 02:30:41;;;;;;;12.65;2.47;;;;;;;6.75;nan;96883.81;2058058;28;20047;-55
2024/01/25 02:31:42;;;;;;;8.73;1.50;;;;;;;6.77;nan;96881.22;2066163;28;20406;-55
2024/01/25 02:32:44;;;;;;;11.27;2.20;;;;;;;6.79;nan;96888.06;2065897;28;20065;-55
2024/01/25 02:33:45;;;;;;;13.98;2.95;;;;;;;6.79;nan;96885.47;2065731;28;20050;-57
2024/01/25 02:34:46;;;;;;;11.48;2.28;;;;;;;6.82;nan;96889.75;2065726;28;20475;-56
2024/01/25 02:35:47;;;;;;;18.77;4.35;;;;;;;6.80;nan;96889.75;2065719;28;20050;-55
2024/01/25 02:36:48;;;;;;;14.65;2.50;;;;;;;6.80;nan;96884.59;2065532;28;20045;-56
2024/01/25 02:37:50;;;;;;;13.13;2.53;;;;;;;6.80;nan;96879.44;2064891;28;20513;-55
2024/01/25 02:38:51;;;;;;;9.43;1.92;;;;;;;6.83;nan;96886.25;2065076;28;20058;-55
2024/01/25 02:39:52;;;;;;;8.65;1.73;;;;;;;6.83;nan;96894.84;2065921;28;20053;-55
2024/01/25 02:40:53;;;;;;;14.60;2.92;;;;;;;6.83;nan;96883.69;2056211;28;20051;-55
2024/01/25 02:41:55;;;;;;;8.95;1.70;;;;;;;6.82;nan;96893.16;2057243;28;20392;-55
2024/01/25 02:42:59;;;;;;;14.88;3.22;;;;;;;6.81;nan;96890.59;2065533;28;20054;-59
2024/01/25 02:44:00;;;;;;;16.20;2.08;;;;;;;6.79;nan;96890.66;2065874;28;20050;-55
2024/01/25 02:45:01;;;;;;;11.20;1.92;;;;;;;6.79;nan;96895.81;2065722;28;20497;-56
2024/01/25 02:46:02;;;;;;;8.18;1.30;;;;;;;6.79;nan;96892.34;2065494;28;20058;-55
2024/01/25 02:47:03;;;;;;;8.50;1.83;;;;;;;6.78;nan;96901.81;2065880;28;20090;-55
2024/01/25 02:48:05;;;;;;;13.45;2.17;;;;;;;6.80;nan;96894.91;2065189;28;20081;-56
2024/01/25 02:49:06;;;;;;;9.52;1.75;;;;;;;6.80;nan;96899.22;2065719;28;20574;-56
2024/01/25 02:50:07;;;;;;;8.35;1.30;;;;;;;6.80;nan;96897.50;2065681;28;20046;-55
2024/01/25 02:51:08;;;;;;;11.80;2.60;;;;;;;6.82;nan;96894.91;2065867;28;20042;-56
2024/01/25 02:52:09;;;;;;;13.77;2.40;;;;;;;6.79;nan;96903.56;2065669;28;20042;-55
2024/01/25 02:53:10;;;;;;;11.70;1.73;;;;;;;6.82;nan;96897.47;2065197;28;20442;-55
2024/01/25 02:54:12;;;;;;;13.07;2.30;;;;;;;6.82;nan;96902.66;2065451;28;20054;-55
2024/01/25 02:55:13;;;;;;;12.07;2.78;;;;;;;6.82;nan;96898.34;2065723;28;20050;-55
2024/01/25 02:56:14;;;;;;;12.57;2.13;;;;;;;6.81;nan;96899.19;2065757;28;20061;-55
2024/01/25 02:57:15;;;;;;;11.40;2.42;;;;;;;6.81;nan;96895.75;2065636;28;20392;-55
2024/01/25 02:58:16;;;;;;;19.02;3.33;;;;;;;6.80;nan;96889.75;2065108;28;20054;-55
2024/01/25 02:59:17;;;;;;;13.13;3.40;;;;;;;6.79;nan;96885.47;2065456;28;20050;-56
2024/01/25 03:00:19;;;;;;;11.57;2.03;;;;;;;6.78;nan;96891.50;2065865;28;20406;-56
2024/01/25 03:01:20;;;;;;;11.18;2.60;;;;;;;6.76;nan;96890.69;2064857;28;20390;-55
2024/01/25 03:02:21;;;;;;;9.10;2.03;;;;;;;6.76;nan;96882.09;2065497;28;20039;-55
2024/01/25 03:03:23;;;;;;;15.40;2.55;;;;;;;6.75;nan;96890.72;2065573;28;20042;-55
2024/01/25 03:04:24;;;;;;;14.75;2.50;;;;;;;6.74;nan;96889.03;2065302;28;20054;-55
2024/01/25 03:05:25;;;;;;;18.67;3.10;;;;;;;6.71;nan;96884.78;2065879;28;20045;-55
2024/01/25 03:06:27;;;;;;;9.98;1.85;;;;;;;6.70;nan;96892.53;2065767;28;20402;-56
2024/01/25 03:07:28;;;;;;;12.70;2.42;;;;;;;6.67;nan;96890.84;2065030;28;20487;-55
2024/01/25 03:08:29;;;;;;;11.85;2.50;;;;;;;6.67;nan;96882.25;2065385;28;20055;-55
2024/01/25 03:09:30;;;;;;;13.80;2.80;;;;;;;6.66;nan;96867.66;2065690;28;20069;-56
2024/01/25 03:10:31;;;;;;;11.85;2.03;;;;;;;6.65;nan;96876.25;2065605;28;20065;-55
2024/01/25 03:11:32;;;;;;;17.98;3.08;;;;;;;6.64;nan;96867.69;2065421;28;20038;-55
2024/01/25 03:12:33;;;;;;;15.77;3.47;;;;;;;6.64;nan;96867.69;2064905;28;20065;-55
2024/01/25 03:13:34;;;;;;;14.07;2.38;;;;;;;6.60;nan;96872.06;2065066;28;20391;-55
2024/01/25 03:14:35;;;;;;;13.60;3.10;;;;;;;6.60;nan;96868.59;2065687;28;20049;-56
2024/01/25 03:15:37;;;;;;;8.20;1.55;;;;;;;6.61;nan;96867.75;2065586;28;20049;-55
2024/01/25 03:16:38;;;;;;;8.57;2.10;;;;;;;6.62;nan;96854.78;2065785;28;20042;-55
2024/01/25 03:17:39;;;;;;;8.30;1.85;;;;;;;6.62;nan;96861.69;2065810;28;20501;-55
2024/01/25 03:18:40;;;;;;;9.43;2.10;;;;;;;6.63;nan;96868.56;2065850;28;20049;-55
2024/01/25 03:19:41;;;;;;;11.30;2.75;;;;;;;6.61;nan;96873.75;2065654;28;20402;-55
2024/01/25 03:20:42;;;;;;;12.02;2.03;;;;;;;6.62;nan;96874.59;2056639;28;20051;-55
2024/01/25 03:21:43;;;;;;;11.40;2.13;;;;;;;6.62;nan;96866.84;2056036;28;20063;-56
2024/01/25 03:22:44;;;;;;;8.68;1.88;;;;;;;6.61;nan;96857.41;2065297;28;20041;-56
2024/01/25 03:23:45;;;;;;;10.20;1.92;;;;;;;6.60;nan;96853.09;2065428;28;20046;-55
2024/01/25 03:24:47;;;;;;;19.98;2.63;;;;;;;6.60;nan;96871.19;2065482;28;20042;-55
2024/01/25 03:25:48;;;;;;;9.80;1.58;;;;;;;6.61;nan;96870.31;2065427;28;20077;-55
2024/01/25 03:26:50;;;;;;;11.95;2.00;;;;;;;6.59;nan;96860.00;2065299;28;20065;-55
2024/01/25 03:27:51;;;;;;;12.75;2.10;;;;;;;6.61;nan;96857.41;2065579;28;20047;-55
2024/01/25 03:28:52;;;;;;;11.57;2.17;;;;;;;6.62;nan;96864.25;2056989;28;20135;-55
2024/01/25 03:29:53;;;;;;;9.65;1.90;;;;;;;6.66;nan;96870.25;2057167;28;20432;-55
2024/01/25 03:30:54;;;;;;;11.70;1.80;;;;;;;6.63;nan;96871.16;2065363;28;20042;-55
2024/01/25 03:31:55;;;;;;;10.70;1.73;;;;;;;6.63;nan;96858.25;2065575;28;20042;-55
2024/01/25 03:32:56;;;;;;;11.95;2.00;;;;;;;6.63;nan;96872.00;2065568;28;20486;-55
2024/01/25 03:33:57;;;;;;;17.50;2.30;;;;;;;6.63;nan;96866.84;2064957;28;20054;-56
2024/01/25 03:34:58;;;;;;;7.80;2.17;;;;;;;6.66;nan;96870.25;2065603;28;20415;-55
2024/01/25 03:36:06;;;;;;;12.40;1.90;;;;;;;6.59;nan;96849.69;2065609;28;20058;-55
2024/01/25 03:37:08;;;;;;;10.15;2.22;;;;;;;6.66;nan;96865.94;2064667;28;20050;-55
2024/01/25 03:38:09;;;;;;;4.57;1.17;;;;;;;6.67;nan;96872.78;2065580;28;20483;-55
2024/01/25 03:39:10;;;;;;;12.35;2.05;;;;;;;6.70;nan;96872.72;2066946;28;20054;-55
2024/01/25 03:40:11;;;;;;;8.57;1.98;;;;;;;6.70;nan;96874.47;2067192;28;20042;-54
2024/01/25 03:41:12;;;;;;;7.22;1.88;;;;;;;6.70;nan;96879.63;2066950;28;20518;-55
2024/01/25 03:42:13;;;;;;;11.18;1.88;;;;;;;6.72;nan;96875.28;2067223;28;20053;-56
2024/01/25 03:43:15;;;;;;;8.45;1.90;;;;;;;6.71;nan;96877.03;2066690;28;20069;-59
2024/01/25 03:44:16;;;;;;;9.65;2.05;;;;;;;6.73;nan;96877.81;2067056;28;20509;-54
2024/01/25 03:45:17;;;;;;;8.32;1.85;;;;;;;6.72;nan;96878.72;2067037;28;20042;-55
2024/01/25 03:46:18;;;;;;;7.63;1.75;;;;;;;6.74;nan;96889.88;2067231;28;20494;-55
2024/01/25 03:47:19;;;;;;;6.22;1.27;;;;;;;6.75;nan;96883.81;2066956;28;20073;-55
2024/01/25 03:48:21;;;;;;;10.95;1.92;;;;;;;6.77;nan;96887.22;2067028;28;20034;-56
2024/01/25 03:49:22;;;;;;;14.25;1.67;;;;;;;6.76;nan;96882.09;2067012;28;20049;-55
2024/01/25 03:50:24;;;;;;;11.63;1.85;;;;;;;6.73;nan;96870.09;2067040;28;20038;-55
2024/01/25 03:51:26;;;;;;;11.50;2.20;;;;;;;6.76;nan;96884.66;2066646;28;20053;-56
2024/01/25 03:52:30;;;;;;;9.82;1.95;;;;;;;6.77;nan;96882.06;2067015;28;20057;-55
2024/01/25 03:53:31;;;;;;;7.40;2.05;;;;;;;6.76;nan;96885.53;2066427;28;20062;-55
2024/01/25 03:54:32;;;;;;;10.38;2.50;;;;;;;6.75;nan;96882.97;2067030;28;20061;-55
2024/01/25 03:55:33;;;;;;;9.15;1.95;;;;;;;6.74;nan;96879.53;2067167;28;20517;-58
2024/01/25 03:56:34;;;;;;;9.55;1.67;;;;;;;6.75;nan;96888.97;2066930;28;20042;-55
2024/01/25 03:57:36;;;;;;;13.30;2.42;;;;;;;6.73;nan;96893.31;2066902;28;20394;-55
2024/01/25 03:58:37;;;;;;;12.73;2.00;;;;;;;6.75;nan;96888.97;2066183;28;20069;-55
2024/01/25 03:59:38;;;;;;;14.98;2.28;;;;;;;6.74;nan;96894.19;2065993;28;20384;-55
2024/01/25 04:00:39;;;;;;;12.88;2.65;;;;;;;6.74;nan;96899.34;2066844;28;20057;-55
2024/01/25 04:01:42;;;;;;;13.63;2.45;;;;;;;6.74;nan;96902.78;2066970;28;20069;-55
2024/01/25 04:02:43;;;;;;;18.98;2.50;;;;;;;6.74;nan;96899.34;2067146;28;20042;-56
2024/01/25 04:03:44;;;;;;;6.13;1.63;;;;;;;6.73;nan;96897.63;2067100;28;20505;-55
2024/01/25 04:04:45;;;;;;;10.60;2.65;;;;;;;6.73;nan;96906.22;2066538;28;20051;-55
2024/01/25 04:05:47;;;;;;;7.90;1.63;;;;;;;6.73;nan;96900.22;2067053;28;20406;-55
2024/01/25 04:06:48;;;;;;;15.98;2.08;;;;;;;6.71;nan;96908.00;2058512;28;20058;-55
2024/01/25 04:07:49;;;;;;;14.73;3.33;;;;;;;6.69;nan;96906.31;2057930;28;20055;-55
2024/01/25 04:08:50;;;;;;;9.10;2.40;;;;;;;6.70;nan;96906.28;2067034;28;20054;-55
2024/01/25 04:09:51;;;;;;;12.50;2.22;;;;;;;6.69;nan;96914.91;2066383;28;20069;-55
2024/01/25 04:10:52;;;;;;;12.07;1.95;;;;;;;6.67;nan;96908.91;2067015;28;20046;-55
2024/01/25 04:11:53;;;;;;;18.60;2.47;;;;;;;6.68;nan;96913.19;2066964;28;20046;-55
2024/01/25 04:12:54;;;;;;;11.30;2.15;;;;;;;6.66;nan;96914.13;2066532;28;20054;-55
2024/01/25 04:13:55;;;;;;;10.70;1.90;;;;;;;6.63;nan;96908.13;2066929;28;20471;-55
2024/01/25 04:14:56;;;;;;;9.50;2.00;;;;;;;6.62;nan;96915.88;2066900;28;20046;-55
2024/01/25 04:15:58;;;;;;;17.30;2.38;;;;;;;6.63;nan;96912.44;2066878;28;20042;-56
2024/01/25 04:16:59;;;;;;;9.95;2.50;;;;;;;6.60;nan;96915.06;2065948;28;20058;-55
2024/01/25 04:18:00;;;;;;;6.22;1.48;;;;;;;6.58;nan;96897.03;2067018;28;20057;-56
2024/01/25 04:19:01;;;;;;;11.23;2.47;;;;;;;6.56;nan;96908.25;2066962;28;20052;-55
2024/01/25 04:20:02;;;;;;;10.15;2.60;;;;;;;6.59;nan;96915.94;2066244;28;20050;-55
2024/01/25 04:21:04;;;;;;;9.55;2.28;;;;;;;6.55;nan;96919.47;2066834;28;20046;-55
2024/01/25 04:22:05;;;;;;;12.90;1.80;;;;;;;6.52;nan;96914.31;2065970;28;20050;-56
2024/01/25 04:23:06;;;;;;;10.68;2.10;;;;;;;6.51;nan;96913.47;2066441;28;20050;-55
2024/01/25 04:24:07;;;;;;;19.38;2.25;;;;;;;6.51;nan;96913.47;2065810;28;20054;-55
2024/01/25 04:25:08;;;;;;;11.02;2.30;;;;;;;6.51;nan;96913.47;2066743;28;20046;-55
2024/01/25 04:26:09;;;;;;;6.28;1.90;;;;;;;6.48;nan;96905.78;2066564;28;20061;-55
2024/01/25 04:27:10;;;;;;;15.55;2.05;;;;;;;6.47;nan;96909.28;2066921;28;20046;-55
2024/01/25 04:28:11;;;;;;;9.73;2.30;;;;;;;6.47;nan;96901.53;2066108;28;20415;-55
2024/01/25 04:29:12;;;;;;;11.02;2.42;;;;;;;6.46;nan;96917.88;2057322;28;20059;-55
2024/01/25 04:30:14;;;;;;;10.98;1.88;;;;;;;6.47;nan;96921.28;2058031;28;20059;-55
2024/01/25 04:31:15;;;;;;;12.80;1.58;;;;;;;6.47;nan;96923.88;2066974;28;20486;-55
2024/01/25 04:32:16;;;;;;;13.68;2.30;;;;;;;6.47;nan;96918.72;2066866;28;20049;-55
2024/01/25 04:33:17;;;;;;;14.70;2.58;;;;;;;6.44;nan;96918.75;2066160;28;20050;-55
2024/01/25 04:34:18;;;;;;;10.23;2.00;;;;;;;6.44;nan;96919.59;2066906;28;20062;-55
2024/01/25 04:35:19;;;;;;;11.00;2.08;;;;;;;6.46;nan;96922.19;2066907;28;20038;-55
2024/01/25 04:36:20;;;;;;;9.00;1.63;;;;;;;6.43;nan;96914.50;2057355;28;20415;-55
2024/01/25 04:37:22;;;;;;;13.95;2.83;;;;;;;6.42;nan;96933.44;2057432;28;20058;-56
2024/01/25 04:38:23;;;;;;;15.40;2.42;;;;;;;6.40;nan;96931.72;2066736;28;20042;-55
2024/01/25 04:39:24;;;;;;;10.02;1.70;;;;;;;6.39;nan;96932.59;2066320;28;20069;-55
2024/01/25 04:40:25;;;;;;;10.82;2.22;;;;;;;6.39;nan;96919.72;2066867;28;20045;-55
2024/01/25 04:41:26;;;;;;;12.13;2.40;;;;;;;6.42;nan;96925.69;2066635;28;20371;-55
2024/01/25 04:42:28;;;;;;;9.63;3.33;;;;;;;6.40;nan;96926.56;2066524;28;20055;-56
2024/01/25 04:43:33;;;;;;;9.45;1.70;;;;;;;6.39;nan;96931.75;2066670;28;20140;-55
2024/01/25 04:44:34;;;;;;;7.95;2.60;;;;;;;6.38;nan;96933.47;2050036;29;20055;-55
2024/01/25 04:45:35;;;;;;;12.20;2.20;;;;;;;6.42;nan;96943.75;2050626;28;20043;-55
2024/01/25 04:46:37;;;;;;;12.80;3.15;;;;;;;6.41;nan;96950.63;2066774;28;20057;-56
2024/01/25 04:47:39;;;;;;;9.48;1.88;;;;;;;6.42;nan;96954.94;2065777;28;20053;-55
2024/01/25 04:48:40;;;;;;;12.90;2.33;;;;;;;6.44;nan;96958.31;2066629;28;20482;-56
2024/01/25 04:49:41;;;;;;;10.15;1.75;;;;;;;6.44;nan;96952.31;2066703;28;20050;-55
2024/01/25 04:50:42;;;;;;;10.05;1.90;;;;;;;6.43;nan;96958.34;2065994;28;20398;-56
2024/01/25 04:51:44;;;;;;;18.20;2.55;;;;;;;6.45;nan;96961.78;2066694;28;20042;-55
2024/01/25 04:52:45;;;;;;;10.18;2.08;;;;;;;6.44;nan;96963.47;2066610;28;20046;-55
2024/01/25 04:53:46;;;;;;;9.07;2.03;;;;;;;6.46;nan;96968.63;2066789;28;20053;-55
2024/01/25 04:54:47;;;;;;;8.70;1.77;;;;;;;6.43;nan;96961.78;2066672;28;20046;-55
2024/01/25 04:55:48;;;;;;;11.25;1.45;;;;;;;6.42;nan;96970.41;2066505;28;20042;-55
2024/01/25 04:56:49;;;;;;;12.90;1.95;;;;;;;6.43;nan;96972.09;2066475;28;20502;-55